Terminal Aerodrome Forecast
Issued by NWS

Home | Current Version | Previous Version | Text Only | Print | Product List | Glossary On
Versions: 1 2 3 4 5 6 7 8 9 10 11 12 13 14 15
000
FTAK31 PANC 241214 AAA
TAFAEN
TAF AMD
PAEN 241214Z 2412/2512 VRB05KT P6SM -RA OVC030
     FM241600 08009KT P6SM -RA BKN030 OVC045 WS015/13030KT
     FM242200 10012KT 4SM -RA BR SCT010 BKN020 OVC030
     FM250100 20012KT 2SM -RA BR BKN009 OVC020
     FM250400 20015G25KT P6SM -SHRA SCT010 BKN025=

USA.gov is the U.S. government's official web portal to all federal, state and local government web resources and services.